Archival Weather

Aeroparque Jorge Newbery

Buenos Aires, Argentina (SABE)

Report from: Thursday, February 22, 2024 5:00 PM -03
Current time: Monday, June 24, 2024 6:12 AM -03

Current weather – Weather history – Daily summaries
Weather forecast

Temperature29.0°C (84.2°F)
Heat index31.6°C (88.8°F)
Dew point21.0°C (69.8°F)
Winds 12 kts (6.2 m/s, 13.8 mph) East (100°)
Visibility6.2 mi. (10 km)
Clouds Few clouds 3,000 ft. (914 m)
Altimeter29.68 in.Hg (1005 mB)
Relative humidity62 %
Density altitude2,221 ft. (677 m)
Remarks No significant changes expected in the next two hours
Flight conditions Visual Meteorological Conditions
Raw dataSABE 222000Z 10012KT 9999 FEW030 29/21 Q1005 NOSIG
An error has occurred. This application may no longer respond until reloaded. Reload 🗙